Time;durP1;ratioP1;P1;durP2;ratioP2;P2;SDS_P1;SDS_P2;PMS_P1;PMS_P2;Temp;Humidity;BMP_temperature;BMP_pressure;BME280_temperature;BME280_humidity;BME280_pressure;Samples;Min_cycle;Max_cycle;Signal;HPM_P1;HPM_P2
2023/09/16 00:00:08;;;;;;;8.67;4.80;;;;;;;20.28;68.71;101081.91;126966;1086;101871;-83
2023/09/16 00:02:56;;;;;;;6.37;4.23;;;;;;;20.21;69.40;101086.33;128014;1085;104203;-83
2023/09/16 00:05:25;;;;;;;6.17;4.30;;;;;;;20.20;68.49;101087.20;126986;1086;104178;-83
2023/09/16 00:07:54;;;;;;;9.30;4.83;;;;;;;20.18;68.86;101082.73;126991;1086;101819;-81
2023/09/16 00:10:22;;;;;;;6.77;4.53;;;;;;;20.21;68.48;101090.75;127058;1085;101820;-83
2023/09/16 00:12:51;;;;;;;7.57;4.80;;;;;;;20.19;69.57;101087.20;127909;1085;102115;-82
2023/09/16 00:15:21;;;;;;;7.90;5.13;;;;;;;20.25;68.88;101089.89;126983;1086;104200;-82
2023/09/16 00:17:50;;;;;;;7.00;4.60;;;;;;;20.21;68.77;101082.75;126834;1086;104327;-82
2023/09/16 00:20:19;;;;;;;7.13;4.53;;;;;;;20.20;68.63;101089.87;127001;1086;104255;-82
2023/09/16 00:22:48;;;;;;;8.10;4.80;;;;;;;20.18;69.13;101083.66;127083;1086;104323;-82
2023/09/16 00:25:17;;;;;;;9.23;4.77;;;;;;;20.18;68.86;101085.41;128038;1085;102034;-83
2023/09/16 00:27:46;;;;;;;7.23;5.00;;;;;;;20.09;69.44;101087.14;128078;1085;104066;-83
2023/09/16 00:30:14;;;;;;;8.67;5.40;;;;;;;20.03;69.05;101092.44;127169;1086;101826;-83
2023/09/16 00:32:43;;;;;;;8.23;5.43;;;;;;;19.97;69.67;101089.73;127152;1086;101801;-83
2023/09/16 00:35:13;;;;;;;11.40;4.83;;;;;;;19.92;69.68;101091.48;126980;1086;102108;-81
2023/09/16 00:37:43;;;;;;;9.40;5.27;;;;;;;19.91;69.00;101095.02;127004;1086;104113;-82
2023/09/16 00:40:12;;;;;;;7.27;4.53;;;;;;;19.87;69.40;101088.78;126965;1086;101778;-83
2023/09/16 00:42:41;;;;;;;11.10;5.10;;;;;;;19.81;69.53;101093.19;127005;1086;104194;-82
2023/09/16 00:45:10;;;;;;;8.77;5.47;;;;;;;19.75;69.73;101097.53;126710;1086;102089;-81
2023/09/16 00:47:40;;;;;;;9.27;5.20;;;;;;;19.69;70.21;101094.82;126722;1086;102137;-83
2023/09/16 00:50:12;;;;;;;12.30;5.43;;;;;;;19.66;70.58;101097.46;127964;1086;104088;-81
2023/09/16 00:52:45;;;;;;;8.50;5.17;;;;;;;19.66;70.29;101101.91;126965;1086;104034;-82
2023/09/16 00:55:14;;;;;;;7.40;4.90;;;;;;;19.64;70.48;101098.34;127028;1086;104162;-82
2023/09/16 00:57:48;;;;;;;11.17;5.50;;;;;;;19.62;70.79;101100.09;126998;1086;101855;-82
2023/09/16 01:00:17;;;;;;;10.70;5.50;;;;;;;19.59;70.78;101103.63;127001;1086;102048;-82
2023/09/16 01:02:47;;;;;;;11.00;5.80;;;;;;;19.54;70.40;101103.59;126860;1086;101979;-83
2023/09/16 01:05:17;;;;;;;11.77;5.50;;;;;;;19.53;70.33;101100.92;126946;1086;104156;-82
2023/09/16 01:07:46;;;;;;;11.03;5.93;;;;;;;19.50;70.99;101098.23;126962;1086;104168;-81
2023/09/16 01:10:18;;;;;;;10.57;6.10;;;;;;;19.48;70.77;101105.32;127548;1086;104201;-82
2023/09/16 01:12:48;;;;;;;11.77;6.10;;;;;;;19.43;70.44;101109.69;126942;1086;102067;-81
2023/09/16 01:15:20;;;;;;;11.20;6.07;;;;;;;19.38;70.54;101107.91;126981;1086;102096;-81
2023/09/16 01:18:04;;;;;;;8.83;5.70;;;;;;;19.36;70.68;101112.30;126989;1086;104153;-81
2023/09/16 01:20:34;;;;;;;12.70;6.20;;;;;;;19.34;71.52;101116.72;126997;1086;104210;-81
2023/09/16 01:23:03;;;;;;;12.37;6.20;;;;;;;19.32;71.51;101121.14;126960;1085;101839;-81
2023/09/16 01:25:32;;;;;;;11.93;6.30;;;;;;;19.31;71.46;101124.67;127066;1086;102038;-81
2023/09/16 01:28:01;;;;;;;11.27;6.20;;;;;;;19.31;71.51;101121.13;126951;1086;104286;-81
2023/09/16 01:30:32;;;;;;;12.20;6.30;;;;;;;19.29;71.08;101125.52;126939;1086;104087;-80
2023/09/16 01:33:09;;;;;;;12.83;6.33;;;;;;;19.25;71.46;101115.75;127200;1086;101811;-82
2023/09/16 01:35:39;;;;;;;14.10;6.40;;;;;;;19.24;71.91;101124.59;127038;1086;104252;-81
2023/09/16 01:38:08;;;;;;;10.93;6.13;;;;;;;19.24;71.64;101122.81;126850;1086;104282;-81
2023/09/16 01:40:38;;;;;;;11.37;6.10;;;;;;;19.24;71.50;101125.48;126963;1085;102185;-81
2023/09/16 01:43:08;;;;;;;14.53;6.83;;;;;;;19.23;71.49;101134.36;126992;1086;104181;-80
2023/09/16 01:45:43;;;;;;;12.80;6.43;;;;;;;19.22;72.37;101127.24;127023;1086;104101;-81
2023/09/16 01:48:14;;;;;;;13.30;6.13;;;;;;;19.21;72.37;101129.02;126968;1086;104204;-82
2023/09/16 01:50:44;;;;;;;13.53;6.70;;;;;;;19.21;72.42;101131.68;127010;1086;102006;-82
2023/09/16 01:53:13;;;;;;;11.95;6.50;;;;;;;19.24;72.49;101130.80;126979;1086;104040;-83
2023/09/16 01:55:41;;;;;;;13.47;7.53;;;;;;;19.25;73.09;101134.38;127980;1085;101960;-83
2023/09/16 01:58:11;;;;;;;15.20;6.70;;;;;;;19.24;72.24;101136.12;127087;1086;104297;-82
2023/09/16 02:00:40;;;;;;;10.27;6.30;;;;;;;19.23;72.59;101142.34;126866;1086;101848;-81
2023/09/16 02:03:09;;;;;;;12.20;6.63;;;;;;;19.23;72.16;101150.31;126978;1086;104258;-81
2023/09/16 02:05:38;;;;;;;12.17;7.00;;;;;;;19.24;72.50;101151.20;127047;1085;102249;-83
2023/09/16 02:08:07;;;;;;;12.97;6.80;;;;;;;19.23;72.77;101145.00;127119;1086;101851;-82
2023/09/16 02:10:36;;;;;;;13.13;6.57;;;;;;;19.22;73.45;101151.19;127008;1086;104184;-85
2023/09/16 02:13:05;;;;;;;14.77;6.73;;;;;;;19.18;73.04;101147.61;127034;1086;104197;-83
2023/09/16 02:15:35;;;;;;;12.30;6.77;;;;;;;19.20;73.64;101147.62;127021;1086;102318;-83
2023/09/16 02:18:04;;;;;;;16.10;6.80;;;;;;;19.21;73.47;101146.73;126816;1086;101899;-83
2023/09/16 02:20:33;;;;;;;11.53;6.70;;;;;;;19.21;73.81;101147.64;126779;1086;104217;-81
2023/09/16 02:23:03;;;;;;;11.97;6.47;;;;;;;19.21;73.22;101155.63;126788;1086;104152;-82
2023/09/16 02:25:34;;;;;;;10.63;6.30;;;;;;;19.19;72.76;101144.05;127032;1086;101829;-83
2023/09/16 02:28:04;;;;;;;12.60;6.70;;;;;;;19.18;73.21;101147.61;127129;1086;102127;-83
2023/09/16 02:30:32;;;;;;;14.57;6.77;;;;;;;19.16;73.47;101138.70;127025;1086;104313;-83
2023/09/16 02:33:02;;;;;;;13.27;6.70;;;;;;;19.16;73.50;101146.67;127155;1086;101742;-85
2023/09/16 02:35:30;;;;;;;10.30;6.40;;;;;;;19.15;73.47;101150.23;127158;1086;104159;-83
2023/09/16 02:38:02;;;;;;;10.67;6.37;;;;;;;19.15;74.08;101144.00;127183;1086;104183;-82
2023/09/16 02:40:30;;;;;;;12.33;6.77;;;;;;;19.15;73.57;101142.25;127548;1086;101992;-83
2023/09/16 02:42:59;;;;;;;11.67;6.30;;;;;;;19.16;73.88;101153.78;126725;1086;104229;-83
2023/09/16 02:45:28;;;;;;;11.13;6.63;;;;;;;19.16;73.95;101145.80;127022;1085;101820;-84
2023/09/16 02:47:56;;;;;;;10.70;6.50;;;;;;;19.18;73.36;101149.35;127013;1086;101823;-83
2023/09/16 02:50:25;;;;;;;13.87;6.70;;;;;;;19.17;74.10;101145.81;126906;1086;101986;-82
2023/09/16 02:52:53;;;;;;;11.63;6.50;;;;;;;19.16;74.07;101145.80;126971;1086;104217;-84
2023/09/16 02:55:22;;;;;;;11.93;6.13;;;;;;;19.12;74.11;101146.63;127067;1086;104354;-84
2023/09/16 02:57:51;;;;;;;11.80;6.30;;;;;;;19.08;73.75;101155.47;126943;1086;104197;-83
2023/09/16 03:00:20;;;;;;;10.73;6.57;;;;;;;19.06;73.82;101149.22;126977;1085;104162;-82
2023/09/16 03:02:51;;;;;;;12.83;6.90;;;;;;;19.03;74.53;101143.00;126704;1086;104251;-83
2023/09/16 03:05:20;;;;;;;12.43;6.63;;;;;;;19.03;74.07;101148.32;127109;1086;101914;-82
2023/09/16 03:07:49;;;;;;;12.73;6.67;;;;;;;19.07;74.36;101143.03;126636;1086;104660;-82
2023/09/16 03:10:18;;;;;;;13.00;6.90;;;;;;;19.11;74.70;101143.09;127035;1086;104188;-82
2023/09/16 03:12:47;;;;;;;11.20;6.53;;;;;;;19.16;74.53;101145.80;126734;1086;102167;-82
2023/09/16 03:15:16;;;;;;;12.80;6.27;;;;;;;19.19;74.01;101148.49;126748;1086;104603;-82
2023/09/16 03:17:45;;;;;;;14.27;7.90;;;;;;;19.21;74.37;101146.73;126946;1086;101998;-82
2023/09/16 03:20:14;;;;;;;12.47;7.13;;;;;;;19.21;74.17;101141.41;126714;1086;102255;-82
2023/09/16 03:22:43;;;;;;;12.40;7.20;;;;;;;19.21;73.76;101149.39;127023;1086;104103;-82
2023/09/16 03:25:11;;;;;;;13.07;6.83;;;;;;;19.23;74.37;101152.98;126841;1086;101932;-83
2023/09/16 03:27:40;;;;;;;16.43;8.03;;;;;;;19.20;74.46;101156.48;127251;1086;104233;-85
2023/09/16 03:30:11;;;;;;;13.90;7.23;;;;;;;19.17;74.01;101148.47;127066;1086;102246;-84
2023/09/16 03:32:41;;;;;;;13.90;7.30;;;;;;;19.15;73.99;101163.53;127584;1086;104239;-83
2023/09/16 03:35:10;;;;;;;18.13;7.30;;;;;;;19.18;74.04;101152.93;127474;1086;104217;-82
2023/09/16 03:37:39;;;;;;;14.93;8.10;;;;;;;19.19;74.64;101165.34;126793;1086;104047;-83
2023/09/16 03:40:08;;;;;;;14.10;7.90;;;;;;;19.18;73.98;101162.66;127336;1086;102048;-82
2023/09/16 03:42:37;;;;;;;15.10;7.60;;;;;;;19.21;74.33;101165.35;127170;1086;104210;-82
2023/09/16 03:45:08;;;;;;;13.97;8.17;;;;;;;19.20;74.65;101167.12;127812;1086;101951;-82
2023/09/16 03:47:37;;;;;;;16.23;7.87;;;;;;;19.17;74.46;101176.86;127086;1086;104318;-83
2023/09/16 03:50:07;;;;;;;15.63;7.50;;;;;;;19.15;74.56;101176.84;128037;1086;102031;-82
2023/09/16 03:52:36;;;;;;;16.97;8.50;;;;;;;19.16;73.79;101175.06;127036;1086;102140;-82
2023/09/16 03:55:06;;;;;;;16.30;8.03;;;;;;;19.19;74.44;101172.44;127194;1086;101910;-83
2023/09/16 03:57:34;;;;;;;17.00;8.73;;;;;;;19.18;75.03;101174.21;127522;1086;102271;-83
2023/09/16 04:00:11;;;;;;;19.40;8.87;;;;;;;19.16;73.93;101177.72;127091;1086;104152;-81
2023/09/16 04:02:42;;;;;;;17.50;9.50;;;;;;;19.13;73.86;101188.32;127278;1086;110648;-81
2023/09/16 04:05:11;;;;;;;17.73;9.20;;;;;;;19.11;74.65;101190.08;127409;1085;101773;-83
2023/09/16 04:07:39;;;;;;;16.95;9.45;;;;;;;19.10;74.95;101188.28;126993;1086;102243;-80
2023/09/16 04:10:11;;;;;;;18.87;9.50;;;;;;;19.08;74.98;101190.05;126965;1086;102049;-82
2023/09/16 04:12:39;;;;;;;21.83;10.03;;;;;;;19.06;74.37;101200.67;127108;1086;104184;-80
2023/09/16 04:15:09;;;;;;;18.85;10.00;;;;;;;19.04;75.30;101203.31;127042;1086;104222;-81
2023/09/16 04:17:38;;;;;;;19.87;10.97;;;;;;;19.02;75.22;101205.03;126999;1086;102096;-80
2023/09/16 04:20:10;;;;;;;19.20;10.13;;;;;;;19.02;74.70;101210.36;126923;1086;102330;-83
2023/09/16 04:22:39;;;;;;;17.40;9.87;;;;;;;19.03;74.99;101205.95;127049;1085;104251;-82
2023/09/16 04:25:09;;;;;;;19.90;10.93;;;;;;;19.03;75.06;101212.16;127013;1086;101841;-81
2023/09/16 04:27:37;;;;;;;18.33;10.67;;;;;;;19.02;74.79;101220.99;126820;1086;102289;-84
2023/09/16 04:30:08;;;;;;;19.73;10.80;;;;;;;19.02;75.29;101214.80;126864;1086;101728;-82
2023/09/16 04:32:37;;;;;;;21.53;10.97;;;;;;;19.01;74.97;101219.23;126789;1090;102185;-80
2023/09/16 04:35:08;;;;;;;18.93;11.07;;;;;;;19.02;74.92;101220.99;126827;1086;102199;-83
2023/09/16 04:37:37;;;;;;;23.70;12.37;;;;;;;19.06;75.30;101221.03;126804;1086;102278;-81
2023/09/16 04:40:10;;;;;;;21.97;11.80;;;;;;;19.09;75.37;101223.73;127006;1086;104159;-82
2023/09/16 04:42:39;;;;;;;18.82;10.93;;;;;;;19.11;75.23;101229.98;126918;1086;102163;-80
2023/09/16 04:45:12;;;;;;;20.20;11.83;;;;;;;19.16;74.87;101229.14;127077;1086;104334;-81
2023/09/16 04:47:41;;;;;;;22.30;11.40;;;;;;;19.24;74.88;101234.55;127165;1086;104185;-82
2023/09/16 04:50:10;;;;;;;23.80;11.20;;;;;;;19.29;75.19;101235.53;126924;1086;102044;-85
2023/09/16 04:52:39;;;;;;;21.70;12.17;;;;;;;19.30;75.05;101237.29;127113;1086;102018;-81
2023/09/16 04:55:10;;;;;;;22.97;11.77;;;;;;;19.33;76.04;101237.33;127149;1086;102064;-85
2023/09/16 04:57:39;;;;;;;23.70;12.10;;;;;;;19.38;75.30;101246.28;127305;1086;102002;-83
2023/09/16 05:00:09;;;;;;;21.57;11.97;;;;;;;19.43;75.50;101243.67;126823;1086;102108;-84
2023/09/16 05:02:38;;;;;;;22.17;12.37;;;;;;;19.45;75.25;101249.01;127122;1089;101849;-82
2023/09/16 05:05:09;;;;;;;20.80;11.33;;;;;;;19.51;74.89;101246.38;127659;1086;101806;-79
2023/09/16 05:07:38;;;;;;;22.23;12.10;;;;;;;19.56;75.96;101247.34;127105;1086;102089;-81
2023/09/16 05:10:09;;;;;;;21.37;11.30;;;;;;;19.60;74.96;101254.47;126854;1086;102286;-83
2023/09/16 05:12:38;;;;;;;22.63;11.77;;;;;;;19.62;75.23;101260.72;126823;1086;104191;-88
2023/09/16 05:15:09;;;;;;;25.25;12.30;;;;;;;19.68;74.95;101254.55;127567;1085;102107;-87
2023/09/16 05:17:40;;;;;;;21.37;12.17;;;;;;;19.71;75.36;101260.82;127539;1089;102073;-85
2023/09/16 05:20:10;;;;;;;20.37;10.93;;;;;;;19.73;74.81;101252.85;127102;1086;104201;-85
2023/09/16 05:22:39;;;;;;;20.17;11.63;;;;;;;19.73;74.81;101253.73;126747;1086;104350;-84
2023/09/16 05:25:09;;;;;;;21.47;11.93;;;;;;;19.68;75.31;101263.45;126793;1086;102031;-87
2023/09/16 05:27:39;;;;;;;24.30;12.53;;;;;;;19.68;75.49;101263.45;126818;1086;102121;-83
2023/09/16 05:30:10;;;;;;;21.03;11.77;;;;;;;19.67;75.16;101258.99;127282;1085;104052;-84
2023/09/16 05:32:39;;;;;;;21.07;11.67;;;;;;;19.70;75.62;101266.12;127753;1086;102013;-82
2023/09/16 05:35:09;;;;;;;21.37;11.93;;;;;;;19.70;74.71;101267.02;127360;1086;104252;-81
2023/09/16 05:37:37;;;;;;;22.75;12.25;;;;;;;19.74;75.58;101273.25;127356;1086;104238;-80
2023/09/16 05:40:08;;;;;;;19.93;11.57;;;;;;;19.73;75.61;101277.69;127482;1086;104278;-82
2023/09/16 05:42:37;;;;;;;22.70;12.80;;;;;;;19.75;75.10;101275.05;126906;1086;101950;-83
2023/09/16 05:45:08;;;;;;;23.00;12.37;;;;;;;19.78;74.63;101272.45;127295;1086;101954;-84
2023/09/16 05:47:38;;;;;;;23.50;12.50;;;;;;;19.78;75.13;101269.78;127314;1089;104300;-83
2023/09/16 05:50:08;;;;;;;22.43;12.73;;;;;;;19.80;74.91;101278.67;127175;1086;104217;-83
2023/09/16 05:52:37;;;;;;;22.20;12.27;;;;;;;19.81;74.74;101284.91;127033;1086;104095;-86
2023/09/16 05:55:07;;;;;;;21.00;12.50;;;;;;;19.82;75.16;101278.69;127045;1086;102098;-81
2023/09/16 05:57:36;;;;;;;21.63;12.37;;;;;;;19.90;75.21;101275.23;126965;1086;104239;-81
2023/09/16 06:00:09;;;;;;;25.53;13.30;;;;;;;19.92;74.55;101277.91;126942;1086;102310;-83
2023/09/16 06:02:41;;;;;;;20.87;12.50;;;;;;;19.96;73.97;101281.49;127606;1086;104624;-83
2023/09/16 06:05:10;;;;;;;20.10;11.33;;;;;;;19.96;74.06;101277.08;126825;1086;104152;-84
2023/09/16 06:07:42;;;;;;;23.03;12.93;;;;;;;19.99;74.11;101281.52;127092;1085;101861;-81
2023/09/16 06:10:12;;;;;;;21.03;11.93;;;;;;;20.07;74.57;101274.48;128079;1085;104235;-82
2023/09/16 06:12:41;;;;;;;19.80;11.37;;;;;;;20.16;74.46;101279.02;126993;1086;102048;-82
2023/09/16 06:15:11;;;;;;;19.50;11.43;;;;;;;20.23;74.35;101287.07;127022;1085;101964;-80
2023/09/16 06:17:39;;;;;;;20.07;11.97;;;;;;;20.25;74.03;101284.42;127674;1086;104325;-80
2023/09/16 06:20:10;;;;;;;21.10;11.63;;;;;;;20.23;73.67;101284.41;127992;1085;103742;-81
2023/09/16 06:22:40;;;;;;;20.80;11.87;;;;;;;20.21;73.39;101279.93;126937;1086;101860;-85
2023/09/16 06:25:09;;;;;;;22.80;12.20;;;;;;;20.18;73.72;101287.90;126860;1086;104277;-82
2023/09/16 06:27:38;;;;;;;18.93;11.43;;;;;;;20.23;73.08;101289.73;127382;1086;104357;-85
2023/09/16 06:30:09;;;;;;;19.17;10.90;;;;;;;20.30;73.16;101288.00;127299;1086;104276;-84
2023/09/16 06:32:38;;;;;;;22.70;11.40;;;;;;;20.29;72.54;101292.45;126805;1086;104191;-83
2023/09/16 06:35:07;;;;;;;18.90;10.00;;;;;;;20.29;72.72;101294.23;126851;1086;101806;-83
2023/09/16 06:37:36;;;;;;;21.40;11.40;;;;;;;20.28;72.36;101300.44;126807;1086;104194;-81
2023/09/16 06:40:06;;;;;;;19.53;10.93;;;;;;;20.28;72.77;101292.44;126904;1086;104219;-81
2023/09/16 06:42:36;;;;;;;21.47;10.60;;;;;;;20.34;72.57;101299.61;127055;1085;104156;-84
2023/09/16 06:45:07;;;;;;;23.23;11.73;;;;;;;20.38;72.15;101290.73;127183;1086;102108;-80
2023/09/16 06:47:35;;;;;;;20.73;11.33;;;;;;;20.45;72.10;101297.91;128242;1086;101729;-84
2023/09/16 06:50:06;;;;;;;20.07;10.90;;;;;;;20.58;73.08;101298.88;127322;1086;102328;-81
2023/09/16 06:52:34;;;;;;;20.23;11.03;;;;;;;20.61;72.08;101307.79;127147;1086;104249;-80
2023/09/16 06:55:04;;;;;;;19.83;10.93;;;;;;;20.67;71.44;101314.10;127290;1086;104191;-82
2023/09/16 06:57:32;;;;;;;18.53;10.87;;;;;;;20.79;71.73;101311.52;127442;1086;101835;-81
2023/09/16 07:00:01;;;;;;;22.27;10.90;;;;;;;20.91;71.45;101316.02;127415;1086;104258;-81
2023/09/16 07:02:30;;;;;;;19.87;11.07;;;;;;;21.00;71.32;101326.75;126941;1086;104270;-83
2023/09/16 07:04:58;;;;;;;20.80;11.27;;;;;;;21.01;71.32;101331.21;127008;1086;104049;-85
2023/09/16 07:07:27;;;;;;;19.83;10.20;;;;;;;21.04;71.10;101333.90;127738;1085;104047;-80
2023/09/16 07:09:56;;;;;;;17.93;9.73;;;;;;;21.05;71.32;101337.45;127958;1085;101932;-85
2023/09/16 07:12:25;;;;;;;19.23;10.60;;;;;;;21.04;70.29;101336.56;127587;1086;104223;-82
2023/09/16 07:14:54;;;;;;;18.93;9.67;;;;;;;21.10;70.72;101335.69;126965;1086;104152;-82
2023/09/16 07:17:22;;;;;;;20.17;10.37;;;;;;;21.16;70.29;101331.30;127107;1086;101951;-82
2023/09/16 07:19:51;;;;;;;18.60;10.40;;;;;;;21.23;69.91;101337.55;127411;1086;102219;-81
2023/09/16 07:22:20;;;;;;;21.90;10.93;;;;;;;21.28;70.14;101334.91;126981;1086;104200;-80
2023/09/16 07:24:48;;;;;;;19.17;10.10;;;;;;;21.26;69.59;101328.68;127385;1086;104194;-79
2023/09/16 07:27:17;;;;;;;18.27;9.77;;;;;;;21.31;69.34;101335.80;127589;1086;102073;-82
2023/09/16 07:29:46;;;;;;;18.77;9.57;;;;;;;21.41;69.23;101333.17;126996;1086;104356;-80
2023/09/16 07:32:14;;;;;;;19.53;10.13;;;;;;;21.52;69.01;101329.70;127976;1085;104053;-81
2023/09/16 07:34:43;;;;;;;17.33;9.53;;;;;;;21.64;69.36;101334.18;127244;1086;104609;-80
2023/09/16 07:37:12;;;;;;;20.70;9.80;;;;;;;21.68;68.63;101335.11;128117;1085;102006;-81
2023/09/16 07:39:40;;;;;;;17.67;9.73;;;;;;;21.71;68.29;101335.11;127024;1086;101820;-80
2023/09/16 07:42:11;;;;;;;17.90;9.47;;;;;;;21.79;68.35;101338.69;127007;1086;104257;-80
2023/09/16 07:44:40;;;;;;;18.50;9.75;;;;;;;21.94;68.19;101336.94;127081;1085;104149;-80
2023/09/16 07:47:08;;;;;;;18.63;9.80;;;;;;;22.05;68.41;101335.20;128377;1085;104159;-79
2023/09/16 07:49:37;;;;;;;18.50;9.90;;;;;;;22.19;67.59;101333.43;128166;1085;101817;-79
2023/09/16 07:52:06;;;;;;;17.47;9.03;;;;;;;22.25;67.13;101333.44;127379;1084;104294;-79
2023/09/16 07:54:34;;;;;;;18.63;9.47;;;;;;;22.30;67.08;101327.17;127391;1086;102312;-79
2023/09/16 07:57:03;;;;;;;20.17;9.50;;;;;;;22.44;67.05;101330.80;127187;1086;102031;-80
2023/09/16 07:59:32;;;;;;;18.10;9.57;;;;;;;22.51;66.13;101326.33;127023;1086;104159;-80
2023/09/16 08:02:00;;;;;;;15.90;8.00;;;;;;;22.54;66.22;101327.21;128301;1085;104072;-81
2023/09/16 08:04:29;;;;;;;16.63;8.97;;;;;;;22.43;65.43;101327.22;127337;1086;102054;-81
2023/09/16 08:06:57;;;;;;;18.57;9.43;;;;;;;22.53;65.72;101322.78;128206;1085;102031;-82
2023/09/16 08:09:26;;;;;;;17.70;10.03;;;;;;;22.67;65.33;101327.20;127911;1086;104284;-82
2023/09/16 08:11:55;;;;;;;15.90;8.73;;;;;;;22.72;64.58;101328.08;127177;1086;104246;-83
2023/09/16 08:14:23;;;;;;;15.83;8.87;;;;;;;22.85;64.46;101323.62;127175;1085;102095;-82
2023/09/16 08:16:56;;;;;;;15.90;8.10;;;;;;;22.96;64.58;101327.16;127328;1086;102017;-81
2023/09/16 08:19:25;;;;;;;17.20;9.85;;;;;;;22.93;63.77;101330.72;127909;1085;104155;-79
2023/09/16 08:21:54;;;;;;;15.90;8.37;;;;;;;22.98;63.75;101336.06;126989;1086;104251;-83
2023/09/16 08:24:23;;;;;;;14.80;7.50;;;;;;;23.06;63.51;101331.61;127093;1085;101818;-81
2023/09/16 08:26:51;;;;;;;14.03;7.43;;;;;;;23.24;63.44;101330.67;127025;1085;102063;-83
2023/09/16 08:29:20;;;;;;;15.20;7.70;;;;;;;23.25;61.56;101335.14;128022;1085;104180;-83
2023/09/16 08:31:49;;;;;;;14.60;7.67;;;;;;;23.30;61.96;101333.33;127042;1086;101784;-87
2023/09/16 08:34:17;;;;;;;13.50;6.90;;;;;;;23.42;61.91;101326.13;127857;1085;102015;-81
2023/09/16 08:36:46;;;;;;;16.77;7.50;;;;;;;23.55;61.69;101332.34;126974;1086;104162;-81
2023/09/16 08:39:15;;;;;;;16.00;7.07;;;;;;;23.70;61.46;101332.27;127049;1086;104159;-81
2023/09/16 08:41:53;;;;;;;13.50;7.10;;;;;;;23.85;60.80;101332.19;127079;1086;101816;-83
2023/09/16 08:44:25;;;;;;;14.00;7.27;;;;;;;23.99;60.51;101329.42;126926;1086;101988;-82
2023/09/16 08:46:59;;;;;;;12.93;6.97;;;;;;;23.93;59.92;101334.82;126912;1085;103426;-82
2023/09/16 08:49:31;;;;;;;13.00;6.73;;;;;;;23.86;58.88;101330.42;127097;1085;102170;-82
2023/09/16 08:52:02;;;;;;;14.87;7.00;;;;;;;23.80;57.65;101323.27;127265;1086;104182;-81
2023/09/16 08:54:35;;;;;;;11.40;6.93;;;;;;;23.83;58.41;101327.72;127210;1086;102334;-80
2023/09/16 08:57:04;;;;;;;12.33;6.80;;;;;;;23.79;58.12;101323.27;126997;1086;104194;-78
2023/09/16 08:59:36;;;;;;;13.37;7.03;;;;;;;23.84;58.19;101324.16;126697;1086;104178;-78
2023/09/16 09:02:05;;;;;;;15.03;7.07;;;;;;;23.92;58.46;101322.34;126905;1086;104244;-80
2023/09/16 09:04:34;;;;;;;13.30;7.00;;;;;;;23.99;57.96;101318.70;127122;1086;101851;-85
2023/09/16 09:07:04;;;;;;;13.17;7.03;;;;;;;24.14;58.15;101315.03;127032;1086;102229;-82
2023/09/16 09:09:32;;;;;;;17.63;7.17;;;;;;;24.31;57.95;101325.63;127109;1086;104322;-82
2023/09/16 09:12:03;;;;;;;14.10;7.10;;;;;;;24.52;57.82;101319.17;127114;1086;102082;-80
2023/09/16 09:14:34;;;;;;;13.97;6.77;;;;;;;24.68;57.16;101316.38;127048;1086;104181;-80
2023/09/16 09:17:04;;;;;;;12.90;7.20;;;;;;;24.69;56.37;101321.73;127178;1086;102644;-82
2023/09/16 09:19:33;;;;;;;11.23;6.60;;;;;;;24.60;56.25;101316.45;127201;1086;104152;-81
2023/09/16 09:22:02;;;;;;;11.33;6.67;;;;;;;24.58;56.32;101321.83;127113;1086;104188;-82
2023/09/16 09:24:33;;;;;;;12.90;6.70;;;;;;;24.66;55.59;101316.39;127402;1086;101788;-84
2023/09/16 09:27:02;;;;;;;11.97;6.40;;;;;;;24.81;55.76;101310.00;127040;1086;104161;-83
2023/09/16 09:29:31;;;;;;;13.63;6.73;;;;;;;24.93;55.54;101315.23;127150;1086;104257;-85
2023/09/16 09:32:00;;;;;;;11.20;6.53;;;;;;;24.88;54.46;101314.38;127701;1086;104217;-86
2023/09/16 09:34:29;;;;;;;15.60;7.20;;;;;;;24.86;54.73;101318.00;127624;1086;101814;-85
2023/09/16 09:36:58;;;;;;;13.40;7.37;;;;;;;24.84;54.34;101312.65;127067;1086;102163;-81
2023/09/16 09:39:26;;;;;;;11.50;6.73;;;;;;;24.94;54.40;101316.11;127079;1086;110216;-84
2023/09/16 09:41:59;;;;;;;11.50;6.60;;;;;;;24.96;53.44;101308.92;127953;1086;101714;-83
2023/09/16 09:44:32;;;;;;;10.80;6.58;;;;;;;24.97;53.78;101310.71;127904;1086;101834;-85
2023/09/16 09:47:00;;;;;;;11.90;6.80;;;;;;;24.97;53.98;101307.15;127169;1086;104203;-84
2023/09/16 09:49:29;;;;;;;12.57;6.23;;;;;;;24.91;52.78;101311.66;127087;1084;104060;-81
2023/09/16 09:51:58;;;;;;;9.97;5.77;;;;;;;24.92;53.30;101308.08;127110;1086;104222;-80
2023/09/16 09:54:27;;;;;;;12.27;6.03;;;;;;;24.62;52.16;101309.30;127078;1086;104225;-82
2023/09/16 09:56:56;;;;;;;10.83;6.23;;;;;;;24.48;52.38;101305.80;128097;1085;104208;-84
2023/09/16 09:59:25;;;;;;;10.57;5.83;;;;;;;24.31;52.47;101305.95;127337;1086;104194;-86
2023/09/16 10:01:54;;;;;;;13.75;6.55;;;;;;;24.25;52.16;101309.59;127300;1086;102092;-85
2023/09/16 10:04:24;;;;;;;9.70;5.43;;;;;;;24.40;52.50;101309.46;127269;1085;104172;-86
2023/09/16 10:06:53;;;;;;;10.77;6.23;;;;;;;24.50;52.03;101298.65;127252;1086;104149;-84
2023/09/16 10:09:22;;;;;;;13.00;6.23;;;;;;;24.59;51.79;101303.96;127026;1086;104204;-83
2023/09/16 10:11:51;;;;;;;10.75;6.15;;;;;;;24.82;51.71;101306.39;127020;1086;104034;-82
2023/09/16 10:14:20;;;;;;;13.90;6.07;;;;;;;25.08;51.78;101303.41;127168;1086;101807;-82
2023/09/16 10:16:49;;;;;;;11.27;5.93;;;;;;;24.96;50.10;101308.92;127099;1085;104650;-81
2023/09/16 10:19:18;;;;;;;10.13;5.67;;;;;;;24.90;50.53;101314.36;126986;1086;101868;-85
2023/09/16 10:21:46;;;;;;;8.87;5.13;;;;;;;24.99;50.57;101311.58;127233;1086;101835;-85
2023/09/16 10:24:16;;;;;;;8.73;4.97;;;;;;;25.16;50.05;101313.19;127091;1086;102162;-79
2023/09/16 10:26:46;;;;;;;9.63;5.30;;;;;;;25.19;49.67;101311.34;127114;1085;104264;-80
2023/09/16 10:29:16;;;;;;;10.67;4.97;;;;;;;25.35;49.37;101314.75;127093;1086;104158;-80
2023/09/16 10:31:46;;;;;;;9.57;5.30;;;;;;;25.31;49.58;101307.66;127237;1086;104041;-82
2023/09/16 10:34:14;;;;;;;9.27;5.30;;;;;;;25.32;49.54;101309.42;127203;1085;104162;-81
2023/09/16 10:36:43;;;;;;;9.17;5.37;;;;;;;25.41;49.82;101305.73;127148;1086;104149;-80
2023/09/16 10:39:15;;;;;;;8.27;4.60;;;;;;;25.40;48.80;101304.86;127283;1085;104219;-82
2023/09/16 10:41:46;;;;;;;8.30;4.13;;;;;;;25.35;49.13;101301.33;128071;1086;101789;-80
2023/09/16 10:44:16;;;;;;;6.97;3.90;;;;;;;25.27;47.92;101297.82;127331;1086;104210;-80
2023/09/16 10:46:46;;;;;;;7.40;4.27;;;;;;;25.25;48.21;101300.53;127038;1085;101917;-83
2023/09/16 10:49:14;;;;;;;6.23;4.30;;;;;;;25.25;46.96;101295.16;127359;1086;104197;-82
2023/09/16 10:51:43;;;;;;;9.57;4.80;;;;;;;25.35;47.17;101300.45;127058;1085;104219;-85
2023/09/16 10:54:25;;;;;;;5.93;4.00;;;;;;;25.48;47.04;101296.70;128137;1085;101768;-83
2023/09/16 10:56:56;;;;;;;6.90;4.30;;;;;;;25.45;46.02;101292.25;127441;1086;101787;-80
2023/09/16 10:59:31;;;;;;;7.10;4.20;;;;;;;25.47;46.29;101292.23;127447;1086;101863;-78
2023/09/16 11:02:07;;;;;;;6.90;4.40;;;;;;;25.45;46.37;101294.94;127196;1086;104255;-80
2023/09/16 11:04:36;;;;;;;7.90;4.73;;;;;;;25.29;47.05;101290.66;127029;1086;101829;-81
2023/09/16 11:07:05;;;;;;;7.00;4.50;;;;;;;25.14;45.88;101291.72;127429;1086;101886;-81
2023/09/16 11:09:35;;;;;;;9.00;4.97;;;;;;;25.10;45.65;101290.88;127370;1086;101819;-85